Time;durP1;ratioP1;P1;durP2;ratioP2;P2;SDS_P1;SDS_P2;PMS_P1;PMS_P2;Temp;Humidity;BMP_temperature;BMP_pressure;BME280_temperature;BME280_humidity;BME280_pressure;Samples;Min_cycle;Max_cycle;Signal;HPM_P1;HPM_P2
2022/10/12 00:01:08;;;;;;;7.85;2.30;;;;;;;9.94;100.00;102460.94;5011642;28;20188;-52
2022/10/12 00:03:35;;;;;;;10.43;2.50;;;;;;;9.90;100.00;102466.34;5002001;28;20215;-52
2022/10/12 00:06:10;;;;;;;13.60;3.08;;;;;;;9.88;100.00;102462.78;5006794;28;20185;-50
2022/10/12 00:08:37;;;;;;;6.18;2.10;;;;;;;9.90;100.00;102455.63;5010591;28;20560;-53
2022/10/12 00:11:05;;;;;;;9.13;1.98;;;;;;;9.95;100.00;102460.94;5006458;28;20562;-49
2022/10/12 00:13:31;;;;;;;8.07;2.50;;;;;;;9.96;100.00;102459.13;5006703;28;20197;-51
2022/10/12 00:15:56;;;;;;;3.67;1.58;;;;;;;9.95;100.00;102457.34;5012637;28;20203;-52
2022/10/12 00:18:22;;;;;;;8.25;2.13;;;;;;;9.92;100.00;102460.06;5007104;28;20268;-51
2022/10/12 00:20:47;;;;;;;9.05;1.98;;;;;;;9.98;100.00;102465.38;5008969;28;20199;-50
2022/10/12 00:23:13;;;;;;;4.82;1.60;;;;;;;9.98;100.00;102460.91;5009188;28;20200;-50
2022/10/12 00:25:40;;;;;;;8.20;1.63;;;;;;;10.03;100.00;102460.84;5007446;28;20193;-48
2022/10/12 00:28:05;;;;;;;8.02;1.77;;;;;;;10.07;100.00;102457.25;5014411;28;20240;-48
2022/10/12 00:30:31;;;;;;;9.23;1.77;;;;;;;9.98;100.00;102462.69;5015982;28;20219;-52
2022/10/12 00:32:57;;;;;;;6.28;1.70;;;;;;;9.94;100.00;102461.81;5009852;28;20214;-52
2022/10/12 00:35:23;;;;;;;6.20;1.70;;;;;;;9.98;100.00;102465.38;5008250;28;20173;-50
2022/10/12 00:37:55;;;;;;;6.10;1.60;;;;;;;9.99;100.00;102459.09;5007795;28;20279;-48
2022/10/12 00:40:22;;;;;;;6.60;1.70;;;;;;;9.97;100.00;102466.25;5012186;28;20183;-49
2022/10/12 00:42:50;;;;;;;7.07;1.30;;;;;;;10.00;100.00;102466.25;5013012;28;20207;-51
2022/10/12 00:45:16;;;;;;;7.20;1.80;;;;;;;9.96;100.00;102472.53;5020129;28;20594;-52
2022/10/12 00:47:51;;;;;;;7.20;1.60;;;;;;;9.93;100.00;102459.16;5005970;28;20215;-50
2022/10/12 00:50:24;;;;;;;7.38;1.88;;;;;;;9.87;100.00;102469.03;5006382;28;20254;-53
2022/10/12 00:52:49;;;;;;;5.60;1.38;;;;;;;9.90;100.00;102457.41;5005644;28;20212;-49
2022/10/12 00:55:19;;;;;;;6.55;1.65;;;;;;;9.89;100.00;102469.91;5016899;28;20356;-49
2022/10/12 00:57:47;;;;;;;6.07;1.30;;;;;;;9.93;100.00;102475.22;5015744;28;20202;-50
2022/10/12 01:00:12;;;;;;;7.22;1.42;;;;;;;9.88;100.00;102476.19;5016933;28;20719;-49
2022/10/12 01:02:41;;;;;;;4.68;1.85;;;;;;;9.86;100.00;102480.66;4997949;28;20303;-54
2022/10/12 01:05:09;;;;;;;7.68;1.67;;;;;;;9.87;100.00;102477.06;4998375;28;20191;-49
2022/10/12 01:07:35;;;;;;;3.95;1.52;;;;;;;9.87;100.00;102481.53;5011611;28;20246;-53
2022/10/12 01:10:01;;;;;;;6.90;1.80;;;;;;;9.85;100.00;102483.34;5009463;28;20201;-54
2022/10/12 01:12:27;;;;;;;5.07;1.60;;;;;;;9.88;100.00;102478.84;5016153;28;20223;-51
2022/10/12 01:14:53;;;;;;;4.70;1.80;;;;;;;9.85;100.00;102476.19;5005021;28;20652;-51
2022/10/12 01:17:32;;;;;;;5.57;1.70;;;;;;;9.83;100.00;102469.94;5000383;28;20260;-54
2022/10/12 01:20:13;;;;;;;3.97;1.40;;;;;;;9.87;100.00;102460.13;5002040;28;20628;-48
2022/10/12 01:23:08;;;;;;;7.70;1.73;;;;;;;9.83;100.00;102447.66;5010578;28;20308;-51
2022/10/12 01:25:59;;;;;;;3.42;1.20;;;;;;;9.83;100.00;102453.88;4959565;28;20282;-48
2022/10/12 01:28:49;;;;;;;7.72;1.95;;;;;;;9.86;100.00;102448.53;5008090;28;20173;-51
2022/10/12 01:31:20;;;;;;;4.78;1.38;;;;;;;9.84;100.00;102444.09;5005035;28;20295;-52
2022/10/12 01:34:33;;;;;;;5.68;1.50;;;;;;;9.79;100.00;102441.44;5006090;28;20531;-48
2022/10/12 01:37:34;;;;;;;8.32;1.83;;;;;;;9.69;100.00;102450.47;4995467;28;20298;-48
2022/10/12 01:40:04;;;;;;;6.53;1.70;;;;;;;9.66;100.00;102442.44;5003973;28;20538;-47
2022/10/12 01:42:33;;;;;;;6.53;1.40;;;;;;;9.74;100.00;102437.91;5008188;28;20273;-50
2022/10/12 01:45:17;;;;;;;4.82;1.40;;;;;;;9.79;100.00;102440.56;5008763;28;20473;-51
2022/10/12 01:47:47;;;;;;;3.45;1.42;;;;;;;9.81;100.00;102428.03;5019150;28;20571;-51
2022/10/12 01:50:15;;;;;;;11.05;2.58;;;;;;;9.68;100.00;102429.94;5009415;28;20287;-48
2022/10/12 01:52:54;;;;;;;5.85;2.63;;;;;;;9.64;100.00;102430.88;5007856;28;20208;-52
2022/10/12 01:55:29;;;;;;;5.50;2.25;;;;;;;9.59;100.00;102430.03;5016758;28;20191;-48
2022/10/12 01:58:27;;;;;;;4.70;1.98;;;;;;;9.61;100.00;102425.53;5012771;28;20187;-50
2022/10/12 02:01:30;;;;;;;8.40;2.08;;;;;;;9.62;100.00;102428.22;5012219;28;20707;-49
2022/10/12 02:04:21;;;;;;;5.22;2.42;;;;;;;9.63;100.00;102431.78;5008450;28;20314;-47
2022/10/12 02:06:52;;;;;;;8.55;2.50;;;;;;;9.64;100.00;102423.75;5014613;28;20180;-48
2022/10/12 02:09:25;;;;;;;7.07;2.00;;;;;;;9.64;100.00;102425.50;5012516;28;20185;-48
2022/10/12 02:11:53;;;;;;;7.68;2.15;;;;;;;9.67;100.00;102426.38;5012911;28;20254;-49
2022/10/12 02:14:24;;;;;;;5.70;1.90;;;;;;;9.60;100.00;102437.13;5014011;28;20244;-50
2022/10/12 02:16:56;;;;;;;10.95;2.30;;;;;;;9.62;100.00;102441.59;5003536;28;20275;-51
2022/10/12 02:19:26;;;;;;;9.02;2.60;;;;;;;9.59;100.00;102438.94;5012185;28;20172;-50
2022/10/12 02:21:55;;;;;;;5.43;2.25;;;;;;;9.69;100.00;102429.94;5013974;28;20359;-52
2022/10/12 02:24:22;;;;;;;8.13;2.58;;;;;;;9.62;100.00;102440.69;5015042;28;20208;-49
2022/10/12 02:26:51;;;;;;;8.15;2.47;;;;;;;9.62;100.00;102440.69;5018234;28;20213;-50
2022/10/12 02:29:23;;;;;;;8.75;2.92;;;;;;;9.59;100.00;102438.06;5003071;28;20259;-48
2022/10/12 02:32:26;;;;;;;5.72;2.20;;;;;;;9.58;100.00;102434.50;4997498;28;20554;-48
2022/10/12 02:35:02;;;;;;;10.50;2.78;;;;;;;9.64;100.00;102430.88;5012190;28;20713;-50
2022/10/12 02:37:34;;;;;;;11.55;2.90;;;;;;;9.56;100.00;102419.34;5014751;28;20605;-52
2022/10/12 02:40:11;;;;;;;8.32;2.70;;;;;;;9.59;100.00;102430.03;5019838;28;20168;-50
2022/10/12 02:42:43;;;;;;;6.85;2.30;;;;;;;9.59;100.00;102427.34;5003448;28;20256;-50
2022/10/12 02:45:11;;;;;;;7.72;2.67;;;;;;;9.60;100.00;102423.75;4999454;28;20280;-48
2022/10/12 02:47:38;;;;;;;8.77;2.97;;;;;;;9.62;100.00;102422.88;5009770;28;20583;-49
2022/10/12 02:50:06;;;;;;;11.07;3.28;;;;;;;9.61;100.00;102421.06;5015485;28;20657;-47
2022/10/12 02:52:32;;;;;;;9.85;3.10;;;;;;;9.60;100.00;102419.31;5019750;28;20854;-45
2022/10/12 02:54:58;;;;;;;10.60;2.90;;;;;;;9.62;100.00;102424.63;5010339;28;20263;-47
2022/10/12 02:57:24;;;;;;;10.18;3.55;;;;;;;9.61;100.00;102422.88;5006129;28;20256;-48
2022/10/12 02:59:49;;;;;;;13.52;3.50;;;;;;;9.56;100.00;102428.25;5001566;28;20235;-48
2022/10/12 03:02:15;;;;;;;12.27;3.33;;;;;;;9.56;100.00;102422.03;5011376;28;20212;-45
2022/10/12 03:04:40;;;;;;;8.57;2.78;;;;;;;9.60;100.00;102423.75;5015064;28;20188;-46
2022/10/12 03:07:05;;;;;;;11.93;3.53;;;;;;;9.54;100.00;102424.72;5010496;28;20168;-45
2022/10/12 03:09:31;;;;;;;12.00;3.47;;;;;;;9.48;100.00;102419.41;5008374;28;20191;-45
2022/10/12 03:11:56;;;;;;;13.32;3.22;;;;;;;9.53;100.00;102419.38;5013180;28;20531;-47
2022/10/12 03:14:22;;;;;;;11.25;3.22;;;;;;;9.53;100.00;102428.28;5005991;28;20181;-47
2022/10/12 03:16:48;;;;;;;13.13;3.90;;;;;;;9.55;100.00;102414.88;5011524;28;20177;-45
2022/10/12 03:19:13;;;;;;;11.73;3.40;;;;;;;9.51;100.00;102418.50;5011068;28;20265;-46
2022/10/12 03:21:39;;;;;;;14.32;4.10;;;;;;;9.49;100.00;102416.72;5009543;28;20261;-44
2022/10/12 03:24:05;;;;;;;9.10;3.53;;;;;;;9.48;100.00;102417.59;5012488;28;20184;-46
2022/10/12 03:26:31;;;;;;;17.83;3.85;;;;;;;9.42;100.00;102414.09;5006251;28;20287;-47
2022/10/12 03:28:57;;;;;;;7.63;3.45;;;;;;;9.40;100.00;102414.13;5002755;28;20598;-45
2022/10/12 03:31:22;;;;;;;12.27;3.90;;;;;;;9.38;100.00;102404.31;5011223;28;20236;-45
2022/10/12 03:33:48;;;;;;;10.85;3.80;;;;;;;9.43;100.00;102405.19;5006758;28;20188;-47
2022/10/12 03:36:13;;;;;;;11.35;3.67;;;;;;;9.46;100.00;102400.69;5011371;28;20188;-44
2022/10/12 03:38:39;;;;;;;7.65;3.70;;;;;;;9.37;100.00;102399.88;5014825;28;20661;-45
2022/10/12 03:41:04;;;;;;;9.18;3.92;;;;;;;9.42;100.00;102403.41;5012628;28;20181;-45
2022/10/12 03:43:29;;;;;;;14.43;3.75;;;;;;;9.41;100.00;102399.84;5017279;28;20219;-46
2022/10/12 03:45:55;;;;;;;9.68;3.25;;;;;;;9.44;100.00;102410.50;5006463;28;20172;-46
2022/10/12 03:48:20;;;;;;;9.48;3.58;;;;;;;9.48;100.00;102396.22;5001677;28;20204;-46
2022/10/12 03:50:50;;;;;;;14.50;4.20;;;;;;;9.32;100.00;102404.41;5010410;28;20332;-47
2022/10/12 03:53:16;;;;;;;10.32;3.95;;;;;;;9.34;100.00;102408.81;5013099;28;20200;-47
2022/10/12 03:55:42;;;;;;;11.82;3.63;;;;;;;9.36;100.00;102411.47;5007653;28;20194;-47
2022/10/12 03:58:08;;;;;;;10.82;3.83;;;;;;;9.28;100.00;102406.19;5004286;28;20577;-45
2022/10/12 04:00:33;;;;;;;12.70;3.70;;;;;;;9.24;100.00;102405.31;5007938;28;20180;-45
2022/10/12 04:03:00;;;;;;;10.98;3.83;;;;;;;9.24;100.00;102405.31;5012643;28;20245;-43
2022/10/12 04:05:27;;;;;;;10.52;3.42;;;;;;;9.19;100.00;102406.25;5015730;28;20609;-45
2022/10/12 04:07:52;;;;;;;12.05;3.20;;;;;;;9.19;100.00;102415.16;5013173;28;20278;-47
2022/10/12 04:10:18;;;;;;;14.40;3.30;;;;;;;9.00;100.00;102409.03;5001090;28;20695;-46
2022/10/12 04:12:44;;;;;;;6.57;3.03;;;;;;;9.12;100.00;102405.41;5010236;28;20218;-47
2022/10/12 04:15:10;;;;;;;7.85;3.47;;;;;;;9.03;100.00;102408.13;5006533;28;20212;-46
2022/10/12 04:17:35;;;;;;;11.18;3.45;;;;;;;8.96;100.00;102407.28;5011221;28;20185;-45
2022/10/12 04:20:01;;;;;;;12.05;4.15;;;;;;;8.93;100.00;102414.47;4998506;28;20187;-46
2022/10/12 04:22:26;;;;;;;12.77;3.55;;;;;;;8.96;100.00;102417.97;5005754;28;20209;-46
2022/10/12 04:24:51;;;;;;;12.50;3.45;;;;;;;8.96;100.00;102411.75;5001924;28;20308;-46
2022/10/12 04:27:17;;;;;;;13.93;3.65;;;;;;;8.91;100.00;102410.91;5019367;28;20199;-45
2022/10/12 04:29:43;;;;;;;12.77;3.58;;;;;;;8.87;100.00;102400.22;5008008;28;20239;-46
2022/10/12 04:32:08;;;;;;;8.77;2.97;;;;;;;8.94;100.00;102403.72;5011478;28;20212;-45
2022/10/12 04:34:35;;;;;;;11.90;3.60;;;;;;;8.85;100.00;102406.47;5009219;28;20575;-46
2022/10/12 04:37:01;;;;;;;9.80;3.28;;;;;;;8.76;100.00;102407.41;5006261;28;20177;-45
2022/10/12 04:39:26;;;;;;;12.68;3.75;;;;;;;8.69;100.00;102413.69;5009848;28;20367;-46
2022/10/12 04:41:52;;;;;;;14.35;3.70;;;;;;;8.68;100.00;102409.25;5008712;28;20227;-48
2022/10/12 04:44:17;;;;;;;9.13;3.63;;;;;;;8.59;100.00;102410.19;5006989;28;20236;-45
2022/10/12 04:46:43;;;;;;;7.65;2.60;;;;;;;8.63;100.00;102411.03;5010555;28;20173;-43
2022/10/12 04:49:08;;;;;;;15.00;4.32;;;;;;;8.46;100.00;102429.78;5011667;28;20287;-44
2022/10/12 04:51:33;;;;;;;8.45;3.30;;;;;;;8.36;100.00;102425.38;5006455;28;20204;-44
2022/10/12 04:53:59;;;;;;;7.68;3.20;;;;;;;8.39;100.00;102420.00;5015090;28;20212;-44
2022/10/12 04:56:25;;;;;;;12.98;3.92;;;;;;;8.35;100.00;102424.50;5017868;28;20181;-46
2022/10/12 04:58:50;;;;;;;9.90;3.90;;;;;;;8.35;100.00;102410.22;5009599;28;20188;-45
2022/10/12 05:01:16;;;;;;;8.00;3.72;;;;;;;8.27;100.00;102412.06;5011421;28;20177;-45
2022/10/12 05:03:41;;;;;;;7.05;3.17;;;;;;;8.33;100.00;102412.00;5009970;28;20276;-43
2022/10/12 05:06:07;;;;;;;9.82;4.55;;;;;;;8.14;100.00;102413.88;5009742;28;20238;-45
2022/10/12 05:08:32;;;;;;;9.73;3.80;;;;;;;8.17;100.00;102422.75;5011609;28;20211;-46
2022/10/12 05:10:58;;;;;;;7.68;3.47;;;;;;;8.19;100.00;102420.97;5019772;28;20185;-45
2022/10/12 05:13:25;;;;;;;6.43;3.33;;;;;;;8.24;100.00;102413.84;4996156;28;20196;-46
2022/10/12 05:15:50;;;;;;;9.43;3.47;;;;;;;7.96;100.00;102423.69;4998434;28;20192;-47
2022/10/12 05:18:16;;;;;;;7.07;3.00;;;;;;;7.97;100.00;102421.91;5006930;28;21062;-44
2022/10/12 05:20:42;;;;;;;9.07;3.53;;;;;;;7.81;100.00;102424.59;5008967;28;20197;-47
2022/10/12 05:23:09;;;;;;;6.03;2.70;;;;;;;7.91;100.00;102435.25;5018673;28;20248;-50
2022/10/12 05:25:35;;;;;;;5.75;3.03;;;;;;;7.81;100.00;102429.06;5008514;28;20196;-48
2022/10/12 05:28:01;;;;;;;5.75;3.00;;;;;;;7.77;100.00;102421.94;5006992;28;20182;-47
2022/10/12 05:30:27;;;;;;;7.55;2.92;;;;;;;7.57;100.00;102430.84;5006780;28;20207;-48
2022/10/12 05:32:52;;;;;;;8.77;3.03;;;;;;;7.33;100.00;102431.72;5012615;28;20232;-48
2022/10/12 05:35:18;;;;;;;7.35;3.00;;;;;;;7.14;100.00;102433.47;5011545;28;20189;-47
2022/10/12 05:37:43;;;;;;;6.25;3.30;;;;;;;7.09;100.00;102427.25;5015765;28;20697;-50
2022/10/12 05:40:09;;;;;;;7.50;3.40;;;;;;;7.13;100.00;102423.69;5010001;28;20188;-49
2022/10/12 05:42:35;;;;;;;6.20;3.00;;;;;;;7.18;100.00;102426.38;5003664;28;20212;-46
2022/10/12 05:45:01;;;;;;;9.23;3.70;;;;;;;7.16;100.00;102413.03;5004036;28;20181;-46
2022/10/12 05:47:26;;;;;;;7.57;3.65;;;;;;;7.18;100.00;102421.03;5011552;28;20185;-46
2022/10/12 05:49:52;;;;;;;11.75;4.13;;;;;;;7.09;100.00;102423.69;5011880;28;20278;-47
2022/10/12 05:52:17;;;;;;;11.50;3.63;;;;;;;7.13;100.00;102422.81;5007772;28;20243;-43
2022/10/12 05:54:43;;;;;;;9.07;3.85;;;;;;;6.92;100.00;102421.88;5016186;28;20183;-47
2022/10/12 05:57:08;;;;;;;9.00;3.50;;;;;;;7.04;100.00;102429.00;5007817;28;20293;-43
2022/10/12 05:59:34;;;;;;;7.65;3.33;;;;;;;7.00;100.00;102414.78;5011103;28;20264;-45
2022/10/12 06:01:59;;;;;;;12.25;4.05;;;;;;;6.98;100.00;102418.34;5013123;28;20208;-47
2022/10/12 06:04:25;;;;;;;8.80;3.95;;;;;;;6.92;100.00;102419.19;5010722;28;20291;-45
2022/10/12 06:06:50;;;;;;;8.77;3.13;;;;;;;6.96;100.00;102420.09;5010960;28;20302;-44
2022/10/12 06:09:15;;;;;;;14.00;4.18;;;;;;;6.86;100.00;102418.28;5015557;28;20201;-48
2022/10/12 06:11:41;;;;;;;10.38;3.90;;;;;;;6.83;100.00;102426.28;5008374;28;20737;-47
2022/10/12 06:14:06;;;;;;;8.95;4.20;;;;;;;6.81;100.00;102423.63;5009092;28;20182;-48
2022/10/12 06:16:32;;;;;;;10.95;4.53;;;;;;;6.92;100.00;102418.31;5009360;28;20529;-48
2022/10/12 06:18:57;;;;;;;9.05;4.53;;;;;;;7.00;100.00;102420.13;5014599;28;20493;-49
2022/10/12 06:21:23;;;;;;;11.20;5.15;;;;;;;7.00;100.00;102422.78;5018808;28;20406;-49
2022/10/12 06:23:48;;;;;;;9.52;5.15;;;;;;;6.97;100.00;102422.75;5015660;28;20176;-50
2022/10/12 06:26:15;;;;;;;14.90;5.82;;;;;;;7.06;100.00;102415.66;5015309;28;20184;-47
2022/10/12 06:28:40;;;;;;;8.75;4.82;;;;;;;7.03;100.00;102421.00;5003391;28;20177;-47
2022/10/12 06:31:06;;;;;;;14.63;6.35;;;;;;;7.15;100.00;102424.59;5010292;28;20199;-48
2022/10/12 06:33:32;;;;;;;14.40;6.40;;;;;;;7.23;100.00;102420.13;5016883;28;20220;-48
2022/10/12 06:35:57;;;;;;;12.05;6.50;;;;;;;7.29;100.00;102421.94;5014422;28;20187;-47
2022/10/12 06:38:23;;;;;;;14.52;6.68;;;;;;;7.39;100.00;102418.41;5021717;28;20176;-50
2022/10/12 06:40:49;;;;;;;14.98;7.18;;;;;;;7.45;100.00;102425.50;5002979;28;20182;-47
2022/10/12 06:43:14;;;;;;;13.20;7.07;;;;;;;7.74;100.00;102416.59;4999230;28;20294;-48
2022/10/12 06:45:40;;;;;;;14.30;7.25;;;;;;;8.01;100.00;102421.91;5004157;28;20188;-48
2022/10/12 06:48:06;;;;;;;11.80;6.78;;;;;;;8.33;100.00;102417.34;5019045;28;20180;-47
2022/10/12 06:50:32;;;;;;;14.85;7.47;;;;;;;8.45;100.00;102404.00;5021000;28;20197;-48
2022/10/12 06:52:58;;;;;;;13.35;7.07;;;;;;;8.63;100.00;102413.72;5010107;28;20692;-47
2022/10/12 06:55:23;;;;;;;13.38;6.10;;;;;;;8.98;100.00;102402.81;5000630;28;20187;-47
2022/10/12 06:57:49;;;;;;;13.10;5.60;;;;;;;9.04;100.00;102399.22;5001642;28;20570;-47
2022/10/12 07:00:15;;;;;;;11.60;6.10;;;;;;;9.33;100.00;102403.47;5006398;28;20208;-48
2022/10/12 07:02:40;;;;;;;11.40;5.43;;;;;;;9.49;100.00;102400.69;5017868;28;20368;-47
2022/10/12 07:05:06;;;;;;;13.73;5.45;;;;;;;9.58;100.00;102393.47;5014878;28;20187;-48
2022/10/12 07:07:34;;;;;;;13.32;6.00;;;;;;;9.80;100.00;102408.41;5004182;28;20258;-48
2022/10/12 07:10:00;;;;;;;11.95;5.55;;;;;;;9.94;100.00;102402.03;5004590;28;20215;-47
2022/10/12 07:12:26;;;;;;;10.82;4.80;;;;;;;9.76;100.00;102397.75;5004190;28;20209;-49
2022/10/12 07:14:53;;;;;;;11.88;4.93;;;;;;;9.88;100.00;102393.19;5010142;28;20223;-48
2022/10/12 07:17:19;;;;;;;13.43;5.28;;;;;;;10.28;100.00;102392.72;5014144;28;20176;-50
2022/10/12 07:19:45;;;;;;;8.10;4.18;;;;;;;10.55;100.00;102392.44;5009931;28;20193;-49
2022/10/12 07:22:11;;;;;;;11.40;4.55;;;;;;;10.57;100.00;102399.56;5012591;28;20431;-47
2022/10/12 07:24:36;;;;;;;15.13;5.20;;;;;;;10.66;100.00;102402.09;5008195;28;20188;-49
2022/10/12 07:27:07;;;;;;;13.95;4.53;;;;;;;10.56;100.00;102391.53;5007458;28;20272;-49
2022/10/12 07:29:33;;;;;;;12.77;4.53;;;;;;;10.80;100.00;102390.28;5012768;28;20188;-47
2022/10/12 07:31:59;;;;;;;9.70;4.18;;;;;;;10.95;100.00;102391.88;5008179;28;20196;-48
2022/10/12 07:34:25;;;;;;;13.20;4.65;;;;;;;11.08;99.98;102390.78;5012251;28;20190;-49
2022/10/12 07:36:51;;;;;;;13.30;4.80;;;;;;;11.10;98.87;102392.53;5009554;28;20615;-48
2022/10/12 07:39:17;;;;;;;8.45;3.60;;;;;;;11.17;98.49;102379.03;5005855;28;20177;-47
2022/10/12 07:41:42;;;;;;;11.13;4.03;;;;;;;11.02;97.70;102396.22;4993354;28;20210;-47
2022/10/12 07:44:09;;;;;;;9.10;4.13;;;;;;;10.78;97.70;102393.03;5004436;28;20689;-45
2022/10/12 07:46:34;;;;;;;11.75;4.53;;;;;;;10.84;97.89;102389.34;5003632;28;20204;-47
2022/10/12 07:49:00;;;;;;;14.13;4.03;;;;;;;10.96;98.26;102391.00;5010533;28;20212;-46
2022/10/12 07:51:25;;;;;;;10.35;4.10;;;;;;;10.71;98.07;102384.19;5011008;28;20871;-46
2022/10/12 07:53:51;;;;;;;13.15;3.95;;;;;;;10.91;98.40;102393.72;5010625;28;20195;-46
2022/10/12 07:56:16;;;;;;;11.52;3.95;;;;;;;10.96;98.34;102389.19;5004408;28;20536;-47
2022/10/12 07:58:47;;;;;;;10.85;3.58;;;;;;;10.96;98.15;102394.56;5006172;28;20189;-45
2022/10/12 08:01:13;;;;;;;13.45;3.80;;;;;;;11.27;98.29;102388.72;5011820;28;20180;-45
2022/10/12 08:03:38;;;;;;;8.23;3.60;;;;;;;11.62;97.94;102389.91;5014800;28;20219;-46
2022/10/12 08:06:16;;;;;;;11.88;4.30;;;;;;;11.66;96.89;102394.31;5015408;28;20184;-44
2022/10/12 08:08:42;;;;;;;12.95;3.65;;;;;;;11.70;96.09;102393.34;4999739;28;20675;-46
2022/10/12 08:11:09;;;;;;;10.25;3.95;;;;;;;11.89;95.64;102385.88;5000860;28;20897;-43
2022/10/12 08:13:35;;;;;;;9.43;3.53;;;;;;;12.14;94.91;102387.16;5009364;28;20212;-45
2022/10/12 08:16:02;;;;;;;7.47;3.60;;;;;;;12.11;94.06;102379.19;5008152;28;20661;-45
2022/10/12 08:18:28;;;;;;;8.68;3.35;;;;;;;12.15;93.22;102386.25;5016085;28;20595;-45
2022/10/12 08:20:53;;;;;;;8.63;3.83;;;;;;;12.12;92.74;102385.44;5005775;28;20272;-44
2022/10/12 08:23:19;;;;;;;10.23;4.00;;;;;;;12.00;92.29;102374.91;4995477;28;20231;-45
2022/10/12 08:25:55;;;;;;;8.25;3.55;;;;;;;12.42;91.84;102396.47;5002897;28;20195;-45
2022/10/12 08:28:22;;;;;;;13.00;3.72;;;;;;;12.34;91.84;102389.44;5009283;28;20188;-46
2022/10/12 08:30:48;;;;;;;10.63;3.25;;;;;;;12.73;91.58;102386.84;5012873;28;20294;-45
2022/10/12 08:33:14;;;;;;;8.88;3.28;;;;;;;12.85;90.91;102379.41;5008211;28;20386;-44
2022/10/12 08:35:40;;;;;;;10.00;3.03;;;;;;;12.88;90.43;102382.00;5002175;28;20187;-45
2022/10/12 08:38:07;;;;;;;8.25;3.47;;;;;;;13.04;90.14;102375.38;5001446;28;20552;-44
2022/10/12 08:40:40;;;;;;;14.40;3.10;;;;;;;12.97;89.74;102379.13;5004590;28;20723;-43
2022/10/12 08:43:19;;;;;;;10.35;3.20;;;;;;;12.80;89.52;102374.13;5011572;28;20209;-50
2022/10/12 08:45:44;;;;;;;10.18;3.67;;;;;;;12.89;89.22;102376.59;5009381;28;20600;-48
2022/10/12 08:48:27;;;;;;;12.00;4.00;;;;;;;13.06;88.54;102370.84;5005209;28;20322;-46
2022/10/12 08:51:06;;;;;;;8.65;3.13;;;;;;;13.03;88.35;102372.69;5004316;28;20209;-48
2022/10/12 08:53:51;;;;;;;11.18;3.67;;;;;;;13.34;88.28;102370.19;5000371;28;20703;-47
2022/10/12 08:56:18;;;;;;;13.80;3.90;;;;;;;13.44;87.70;102374.41;5010509;28;20275;-46
2022/10/12 08:58:45;;;;;;;10.65;3.35;;;;;;;13.00;87.44;102370.97;5003920;28;20540;-46
2022/10/12 09:01:37;;;;;;;13.48;3.60;;;;;;;12.67;87.32;102373.53;5011715;28;20199;-47
2022/10/12 09:04:32;;;;;;;12.70;3.88;;;;;;;13.28;87.63;102383.78;5002658;28;20790;-47
2022/10/12 09:07:07;;;;;;;10.73;2.75;;;;;;;13.50;87.02;102378.78;5007309;28;20196;-48
2022/10/12 09:09:54;;;;;;;12.00;3.20;;;;;;;13.87;86.06;102375.09;5007163;28;20223;-47
2022/10/12 09:12:54;;;;;;;11.07;3.50;;;;;;;13.89;85.63;102375.94;5021459;28;20798;-50
2022/10/12 09:15:28;;;;;;;11.50;3.75;;;;;;;13.93;84.48;102383.03;5010905;28;20634;-49
2022/10/12 09:17:59;;;;;;;12.88;4.10;;;;;;;13.62;84.15;102383.81;5012681;28;20246;-47
2022/10/12 09:20:34;;;;;;;10.55;3.85;;;;;;;13.82;84.46;102375.22;5010173;28;20625;-47
2022/10/12 09:23:23;;;;;;;20.33;3.70;;;;;;;13.72;83.51;102373.69;5012714;28;20271;-47
2022/10/12 09:25:49;;;;;;;9.73;3.50;;;;;;;13.81;83.07;102376.16;5005801;28;20275;-47
2022/10/12 09:28:28;;;;;;;12.95;3.67;;;;;;;13.31;82.49;102378.34;5005392;28;20659;-47
2022/10/12 09:31:06;;;;;;;13.25;3.58;;;;;;;13.57;82.58;102377.69;5008641;28;20679;-46
2022/10/12 09:33:40;;;;;;;9.10;3.50;;;;;;;13.71;82.56;102371.91;5005691;28;20222;-48
2022/10/12 09:36:09;;;;;;;14.85;3.40;;;;;;;13.84;82.07;102368.00;5007616;28;20659;-50
2022/10/12 09:38:37;;;;;;;12.82;3.00;;;;;;;13.94;81.96;102369.50;5004852;28;20173;-47
2022/10/12 09:41:02;;;;;;;9.77;2.80;;;;;;;14.20;80.86;102367.88;5005962;28;20176;-46
2022/10/12 09:43:28;;;;;;;9.32;2.88;;;;;;;14.18;80.65;102367.91;5005220;28;20204;-48
2022/10/12 09:45:53;;;;;;;11.77;3.08;;;;;;;14.04;80.42;102366.53;5012305;28;20196;-47
2022/10/12 09:48:21;;;;;;;7.55;2.80;;;;;;;14.23;80.41;102354.31;5004106;28;20196;-48
2022/10/12 09:50:54;;;;;;;15.68;3.90;;;;;;;14.27;80.49;102363.19;5000485;28;20295;-46
2022/10/12 09:53:53;;;;;;;16.23;3.30;;;;;;;14.35;80.16;102359.34;5006256;28;20548;-48
2022/10/12 09:56:31;;;;;;;11.88;3.85;;;;;;;14.10;79.92;102360.97;4975878;28;20220;-50
2022/10/12 09:59:00;;;;;;;10.52;3.10;;;;;;;14.30;79.83;102353.22;5010814;28;20196;-47
2022/10/12 10:01:28;;;;;;;13.75;3.58;;;;;;;14.46;79.96;102364.41;5003637;28;20299;-48
2022/10/12 10:04:31;;;;;;;13.95;3.00;;;;;;;14.45;79.26;102362.63;5001390;28;20267;-48
2022/10/12 10:07:20;;;;;;;7.28;2.63;;;;;;;14.19;78.42;102349.91;5008375;28;20197;-47
2022/10/12 10:09:47;;;;;;;11.75;3.00;;;;;;;14.48;78.76;102367.09;5005284;28;20197;-47
2022/10/12 10:12:57;;;;;;;10.65;2.90;;;;;;;14.77;77.83;102361.69;5009937;28;20689;-48
2022/10/12 10:15:39;;;;;;;12.77;3.05;;;;;;;14.60;77.20;102362.22;5008596;28;20204;-49
2022/10/12 10:18:21;;;;;;;17.13;2.72;;;;;;;14.30;77.01;102360.41;5010065;28;20248;-49
2022/10/12 10:20:53;;;;;;;11.88;2.45;;;;;;;14.27;76.81;102355.09;5021122;28;20283;-49
2022/10/12 10:23:26;;;;;;;15.50;3.28;;;;;;;14.39;77.17;102358.34;5012437;28;20296;-48
2022/10/12 10:26:17;;;;;;;12.88;3.22;;;;;;;14.36;77.58;102355.69;5005890;28;20203;-51
2022/10/12 10:28:44;;;;;;;11.52;2.80;;;;;;;14.31;76.80;102352.28;5011424;28;20212;-46
2022/10/12 10:31:12;;;;;;;11.65;2.72;;;;;;;14.31;76.65;102354.97;5005726;28;20217;-47
2022/10/12 10:33:39;;;;;;;9.20;2.65;;;;;;;14.58;76.68;102353.31;5021204;28;20216;-49
2022/10/12 10:36:17;;;;;;;11.88;2.65;;;;;;;14.64;76.12;102346.81;5014697;28;20290;-46
2022/10/12 10:39:05;;;;;;;10.00;2.78;;;;;;;14.77;76.58;102341.94;5010159;28;20188;-47
2022/10/12 10:41:35;;;;;;;13.10;2.60;;;;;;;15.07;76.01;102340.06;5008511;28;20197;-49
2022/10/12 10:44:02;;;;;;;12.77;2.58;;;;;;;15.00;75.62;102339.38;5008287;28;20216;-47
2022/10/12 10:46:31;;;;;;;11.88;2.65;;;;;;;15.13;75.72;102333.56;5011390;28;20279;-49
2022/10/12 10:49:05;;;;;;;13.90;2.78;;;;;;;15.02;75.41;102336.63;5025965;28;20194;-47
2022/10/12 10:51:46;;;;;;;11.88;2.45;;;;;;;15.12;74.38;102337.22;5012334;28;20203;-47
2022/10/12 10:54:35;;;;;;;14.23;3.17;;;;;;;14.82;74.04;102332.78;5002968;28;20185;-50
2022/10/12 10:57:15;;;;;;;14.43;2.45;;;;;;;14.46;73.74;102342.84;5008487;28;20200;-50
2022/10/12 10:59:55;;;;;;;12.15;2.60;;;;;;;14.50;73.19;102335.56;5006296;28;20183;-50
2022/10/12 11:02:40;;;;;;;9.70;2.30;;;;;;;14.36;73.68;102330.56;5025569;28;20665;-51
2022/10/12 11:05:15;;;;;;;6.85;1.95;;;;;;;14.67;73.44;102335.06;5005902;28;20192;-48
2022/10/12 11:07:49;;;;;;;10.77;2.40;;;;;;;14.72;72.57;102336.69;5004961;28;20195;-49
2022/10/12 11:10:36;;;;;;;10.23;2.58;;;;;;;14.59;72.45;102328.09;5007182;28;20208;-51
2022/10/12 11:13:19;;;;;;;13.27;2.42;;;;;;;14.34;72.54;102325.25;5009247;28;20334;-49
2022/10/12 11:15:53;;;;;;;7.60;2.15;;;;;;;14.11;72.45;102320.50;5017875;28;20239;-50
2022/10/12 11:18:31;;;;;;;12.02;2.33;;;;;;;14.05;73.26;102322.50;5007872;28;20215;-49
2022/10/12 11:21:02;;;;;;;8.35;2.05;;;;;;;14.40;72.42;102314.25;5006937;28;20565;-48
2022/10/12 11:23:34;;;;;;;9.10;2.05;;;;;;;14.69;72.05;102312.47;5007227;28;20599;-51
2022/10/12 11:26:11;;;;;;;12.95;2.50;;;;;;;14.82;70.80;102303.09;5010775;28;20188;-48
2022/10/12 11:28:37;;;;;;;7.60;2.10;;;;;;;14.67;70.57;102295.50;5023940;28;20259;-47
2022/10/12 11:31:06;;;;;;;10.65;2.38;;;;;;;14.48;70.78;102300.53;5011968;28;20229;-48
2022/10/12 11:33:39;;;;;;;6.43;1.65;;;;;;;14.65;71.37;102307.22;5013310;28;20717;-48
2022/10/12 11:36:08;;;;;;;7.68;2.20;;;;;;;14.71;71.84;102299.81;5004308;28;20197;-49